createdAt,value
2018-03-15T00:01:00.487Z,3.39
2018-03-15T00:03:34.588Z,3.37
2018-03-15T00:06:05.783Z,3.36
2018-03-15T00:08:33.365Z,3.31
2018-03-15T00:11:00.815Z,3.30
2018-03-15T00:13:28.309Z,3.37
2018-03-15T00:15:55.816Z,3.29
2018-03-15T00:18:23.305Z,3.25
2018-03-15T00:20:51.257Z,3.24
2018-03-15T00:23:18.733Z,3.23
2018-03-15T00:25:46.221Z,3.17
2018-03-15T00:28:13.681Z,3.16
2018-03-15T00:30:41.159Z,3.16
2018-03-15T00:33:08.661Z,3.13
2018-03-15T00:35:36.130Z,3.21
2018-03-15T00:38:03.637Z,3.18
2018-03-15T00:40:31.137Z,3.06
2018-03-15T00:42:58.636Z,3.04
2018-03-15T00:45:26.137Z,3.03
2018-03-15T00:47:53.624Z,3.04
2018-03-15T00:50:21.101Z,3.00
2018-03-15T00:52:48.578Z,2.98
2018-03-15T00:55:16.088Z,3.03
2018-03-15T00:57:43.604Z,3.05
2018-03-15T01:00:11.154Z,3.00
2018-03-15T01:02:38.642Z,2.97
2018-03-15T01:05:06.152Z,2.92
2018-03-15T01:07:33.632Z,2.97
2018-03-15T01:10:01.161Z,2.97
2018-03-15T01:12:28.652Z,2.93
2018-03-15T01:14:56.137Z,2.91
2018-03-15T01:17:23.641Z,2.88
2018-03-15T01:19:51.112Z,2.89
2018-03-15T01:22:18.613Z,2.90
2018-03-15T01:24:46.108Z,2.89
2018-03-15T01:27:13.600Z,2.86
2018-03-15T01:29:41.129Z,2.89
2018-03-15T01:32:08.602Z,2.91
2018-03-15T01:34:36.639Z,2.90
2018-03-15T01:37:04.155Z,2.90
2018-03-15T01:39:31.636Z,2.84
2018-03-15T01:41:59.149Z,2.82
2018-03-15T01:44:26.650Z,2.87
2018-03-15T01:46:54.134Z,2.87
2018-03-15T01:49:21.649Z,2.86
2018-03-15T01:51:49.157Z,2.83
2018-03-15T01:54:16.645Z,2.88
2018-03-15T01:56:44.145Z,2.82
2018-03-15T01:59:11.666Z,2.81
2018-03-15T02:01:39.150Z,2.76
2018-03-15T02:04:06.609Z,2.75
2018-03-15T02:06:34.098Z,2.76
2018-03-15T02:09:01.587Z,2.75
2018-03-15T02:11:29.108Z,2.67
2018-03-15T02:13:56.605Z,2.69
2018-03-15T02:16:24.102Z,2.66
2018-03-15T02:18:51.588Z,2.68
2018-03-15T02:21:19.096Z,2.70
2018-03-15T02:23:46.590Z,2.67
2018-03-15T02:26:14.064Z,2.68
2018-03-15T02:28:41.540Z,2.74
2018-03-15T02:31:09.095Z,2.74
2018-03-15T02:33:36.584Z,2.79
2018-03-15T02:36:04.101Z,2.77
2018-03-15T02:38:31.606Z,2.82
2018-03-15T02:40:59.113Z,2.82
2018-03-15T02:43:26.603Z,2.81
2018-03-15T02:45:54.084Z,2.87
2018-03-15T02:48:21.567Z,2.81
2018-03-15T02:50:49.080Z,2.77
2018-03-15T02:53:16.580Z,2.80
2018-03-15T02:55:44.058Z,2.82
2018-03-15T02:58:11.556Z,2.86
2018-03-15T03:00:39.045Z,2.89
2018-03-15T03:03:06.596Z,2.92
2018-03-15T03:05:34.107Z,2.89
2018-03-15T03:08:01.564Z,2.86
2018-03-15T03:10:29.021Z,2.81
2018-03-15T03:12:56.506Z,2.88
2018-03-15T03:15:24.018Z,2.86
2018-03-15T03:17:51.918Z,2.86
2018-03-15T03:20:19.444Z,2.84
2018-03-15T03:22:46.937Z,2.85
2018-03-15T03:25:14.917Z,2.91
2018-03-15T03:27:42.374Z,2.88
2018-03-15T03:30:09.892Z,2.89
2018-03-15T03:32:37.378Z,2.95
2018-03-15T03:35:04.851Z,3.00
2018-03-15T03:37:32.353Z,3.03
2018-03-15T03:39:59.844Z,3.06
2018-03-15T03:42:27.335Z,3.11
2018-03-15T03:44:55.646Z,3.16
2018-03-15T03:47:23.155Z,3.20
2018-03-15T03:49:50.627Z,3.24
2018-03-15T03:52:18.105Z,3.26
2018-03-15T03:54:45.580Z,3.29
2018-03-15T03:57:13.073Z,3.27
2018-03-15T03:59:40.537Z,3.27
2018-03-15T04:02:08.010Z,3.25
2018-03-15T04:04:35.480Z,3.21
2018-03-15T04:07:02.988Z,3.15
2018-03-15T04:09:30.472Z,3.16
2018-03-15T04:11:57.967Z,3.24
2018-03-15T04:14:25.477Z,3.26
2018-03-15T04:16:52.968Z,3.31
2018-03-15T04:19:20.479Z,3.32
2018-03-15T04:21:47.976Z,3.36
2018-03-15T04:24:15.462Z,3.38
2018-03-15T04:26:42.954Z,3.35
2018-03-15T04:29:10.446Z,3.36
2018-03-15T04:31:37.940Z,3.26
2018-03-15T04:34:05.431Z,3.28
2018-03-15T04:36:32.929Z,3.22
2018-03-15T04:41:52.875Z,3.20
2018-03-15T04:44:20.374Z,3.21
2018-03-15T04:46:47.846Z,3.15
2018-03-15T04:49:15.380Z,3.16
2018-03-15T04:51:42.874Z,3.01
2018-03-15T04:54:10.361Z,2.91
2018-03-15T04:56:37.873Z,2.87
2018-03-15T04:59:05.354Z,2.90
2018-03-15T05:01:32.839Z,2.77
2018-03-15T05:04:00.327Z,2.80
2018-03-15T05:06:27.826Z,2.76
2018-03-15T05:08:56.103Z,2.66
2018-03-15T05:11:23.593Z,2.73
2018-03-15T05:13:51.086Z,2.69
2018-03-15T05:16:18.789Z,2.73
2018-03-15T05:18:46.289Z,2.70
2018-03-15T05:21:13.791Z,2.64
2018-03-15T05:23:41.458Z,2.65
2018-03-15T05:26:09.150Z,2.61
2018-03-15T05:28:37.326Z,2.60
2018-03-15T05:31:04.806Z,2.62
2018-03-15T05:33:32.310Z,2.60
2018-03-15T05:35:59.825Z,2.71
2018-03-15T05:38:27.385Z,2.56
2018-03-15T05:40:54.896Z,2.56
2018-03-15T05:43:22.365Z,2.58
2018-03-15T05:45:50.832Z,2.61
2018-03-15T05:48:18.321Z,2.62
2018-03-15T05:50:45.800Z,2.67
2018-03-15T05:53:13.305Z,2.67
2018-03-15T05:55:40.787Z,2.71
2018-03-15T05:58:08.276Z,2.77
2018-03-15T06:00:35.780Z,2.85
2018-03-15T06:03:03.264Z,2.84
2018-03-15T06:05:30.769Z,2.90
2018-03-15T06:07:58.264Z,2.91
2018-03-15T06:10:25.739Z,2.95
2018-03-15T06:12:53.232Z,3.04
2018-03-15T06:15:20.707Z,3.03
2018-03-15T06:17:48.197Z,3.08
2018-03-15T06:20:15.682Z,3.05
2018-03-15T06:22:43.199Z,3.10
2018-03-15T06:25:10.709Z,3.14
2018-03-15T06:27:38.249Z,3.18
2018-03-15T06:30:05.730Z,3.21
2018-03-15T06:32:33.251Z,3.24
2018-03-15T06:35:01.078Z,3.28
2018-03-15T06:37:28.585Z,3.23
2018-03-15T06:39:56.281Z,3.34
2018-03-15T06:42:25.137Z,3.39
2018-03-15T06:44:52.627Z,3.42
2018-03-15T06:47:20.163Z,3.39
2018-03-15T06:49:47.707Z,3.39
2018-03-15T06:52:15.221Z,3.44
2018-03-15T06:54:42.736Z,3.46
2018-03-15T06:57:10.277Z,3.45
2018-03-15T06:59:37.765Z,3.48
2018-03-15T07:02:05.297Z,3.42
2018-03-15T07:04:32.792Z,3.51
2018-03-15T07:07:00.322Z,3.47
2018-03-15T07:09:27.923Z,3.52
2018-03-15T07:11:55.425Z,3.54
2018-03-15T07:14:23.798Z,3.51
2018-03-15T07:16:51.281Z,3.56
2018-03-15T07:19:18.755Z,3.59
2018-03-15T07:21:46.214Z,3.64
2018-03-15T07:24:13.707Z,3.70
2018-03-15T07:26:41.222Z,3.65
2018-03-15T07:29:08.715Z,3.79
2018-03-15T07:31:36.202Z,3.88
2018-03-15T07:34:03.701Z,4.07
2018-03-15T07:36:31.262Z,4.07
2018-03-15T07:38:58.834Z,4.48
2018-03-15T07:41:26.341Z,4.56
2018-03-15T07:43:54.212Z,4.77
2018-03-15T07:46:21.696Z,4.91
2018-03-15T07:48:49.892Z,4.88
2018-03-15T07:51:17.389Z,5.02
2018-03-15T07:53:44.892Z,5.21
2018-03-15T07:56:12.859Z,5.38
2018-03-15T07:58:40.816Z,5.60
2018-03-15T08:01:08.305Z,5.77
2018-03-15T08:03:35.803Z,5.68
2018-03-15T08:06:03.301Z,5.44
2018-03-15T08:08:30.795Z,5.29
2018-03-15T08:10:58.268Z,5.57
2018-03-15T08:13:25.751Z,6.12
2018-03-15T08:15:54.113Z,6.40
2018-03-15T08:18:21.586Z,6.20
2018-03-15T08:20:49.080Z,6.07
2018-03-15T08:23:16.655Z,6.27
2018-03-15T08:25:44.151Z,6.23
2018-03-15T08:28:11.655Z,6.52
2018-03-15T08:30:39.152Z,6.73
2018-03-15T08:33:06.650Z,7.00
2018-03-15T08:35:34.187Z,7.34
2018-03-15T08:38:01.684Z,6.91
2018-03-15T08:40:29.208Z,7.21
2018-03-15T08:42:56.701Z,7.49
2018-03-15T08:45:24.209Z,7.55
2018-03-15T08:47:52.348Z,7.72
2018-03-15T08:50:19.836Z,7.60
2018-03-15T08:52:48.189Z,8.24
2018-03-15T08:55:15.737Z,8.14
2018-03-15T08:57:43.232Z,8.07
2018-03-15T09:00:10.728Z,7.38
2018-03-15T09:02:38.649Z,7.54
2018-03-15T09:05:06.130Z,7.68
2018-03-15T09:07:33.638Z,6.98
2018-03-15T09:10:01.130Z,6.84
2018-03-15T09:12:28.612Z,6.54
2018-03-15T09:14:56.112Z,6.41
2018-03-15T09:17:24.398Z,6.76
2018-03-15T09:19:52.063Z,6.71
2018-03-15T09:22:19.536Z,6.95
2018-03-15T09:24:47.017Z,6.81
2018-03-15T09:27:14.530Z,6.99
2018-03-15T09:29:42.018Z,7.02
2018-03-15T09:32:09.544Z,6.99
2018-03-15T09:34:37.079Z,7.08
2018-03-15T09:37:04.596Z,7.00
2018-03-15T09:39:32.177Z,6.88
2018-03-15T09:41:59.713Z,7.10
2018-03-15T09:44:27.264Z,7.35
2018-03-15T09:46:54.769Z,7.21
2018-03-15T09:49:22.265Z,6.98
2018-03-15T09:51:49.755Z,7.14
2018-03-15T09:54:18.578Z,7.61
2018-03-15T09:56:46.102Z,7.71
2018-03-15T09:59:13.636Z,7.50
2018-03-15T10:01:42.145Z,7.06
2018-03-15T10:04:09.688Z,7.25
2018-03-15T10:06:37.201Z,7.27
2018-03-15T10:09:04.750Z,7.28
2018-03-15T10:11:32.194Z,7.66
2018-03-15T10:13:59.725Z,7.73
2018-03-15T10:16:27.270Z,7.72
2018-03-15T10:18:54.748Z,7.46
2018-03-15T10:21:22.292Z,7.23
2018-03-15T10:23:49.800Z,6.87
2018-03-15T10:26:17.308Z,6.79
2018-03-15T10:28:44.796Z,6.60
2018-03-15T10:31:12.313Z,6.56
2018-03-15T10:33:39.812Z,6.88
2018-03-15T10:36:07.306Z,6.59
2018-03-15T10:38:34.806Z,6.70
2018-03-15T10:41:03.408Z,6.89
2018-03-15T10:43:31.752Z,6.76
2018-03-15T10:45:59.636Z,6.80
2018-03-15T10:48:27.130Z,6.82
2018-03-15T10:50:54.601Z,6.90
2018-03-15T10:53:22.576Z,6.81
2018-03-15T10:55:50.079Z,6.65
2018-03-15T10:58:17.569Z,6.76
2018-03-15T11:00:50.593Z,6.82
2018-03-15T11:03:18.097Z,6.81
2018-03-15T11:05:48.988Z,6.72
2018-03-15T11:08:22.161Z,6.90
2018-03-15T11:10:49.638Z,6.85
2018-03-15T11:13:18.671Z,6.94
2018-03-15T11:15:46.324Z,7.01
2018-03-15T11:18:13.808Z,7.05
2018-03-15T11:20:41.319Z,7.22
2018-03-15T11:23:08.877Z,7.20
2018-03-15T11:25:36.379Z,7.12
2018-03-15T11:28:03.879Z,7.45
2018-03-15T11:30:31.370Z,7.46
2018-03-15T11:32:58.870Z,7.32
2018-03-15T11:35:26.427Z,7.47
2018-03-15T11:37:53.929Z,7.55
2018-03-15T11:40:21.429Z,7.46
2018-03-15T11:42:48.925Z,7.54
2018-03-15T11:45:16.424Z,7.52
2018-03-15T11:47:43.942Z,7.83
2018-03-15T11:50:12.327Z,7.75
2018-03-15T11:52:39.820Z,7.81
2018-03-15T11:55:07.348Z,7.80
2018-03-15T11:57:34.910Z,8.00
2018-03-15T12:00:02.427Z,7.96
2018-03-15T12:02:29.926Z,8.14
2018-03-15T12:04:57.423Z,7.90
2018-03-15T12:07:24.938Z,8.06
2018-03-15T12:09:52.466Z,8.39
2018-03-15T12:12:19.957Z,8.42
2018-03-15T12:14:48.970Z,8.37
2018-03-15T12:17:16.695Z,8.22
2018-03-15T12:19:44.196Z,8.37
2018-03-15T12:22:11.697Z,8.47
2018-03-15T12:24:39.170Z,8.41
2018-03-15T12:27:06.652Z,8.53
2018-03-15T12:29:34.153Z,8.54
2018-03-15T12:32:01.654Z,8.52
2018-03-15T12:34:29.181Z,8.48
2018-03-15T12:36:57.668Z,8.77
2018-03-15T12:39:26.063Z,8.61
2018-03-15T12:41:53.552Z,8.73
2018-03-15T12:44:21.028Z,8.80
2018-03-15T12:46:48.512Z,8.83
2018-03-15T12:49:15.994Z,9.12
2018-03-15T12:51:43.477Z,9.22
2018-03-15T12:54:10.957Z,9.16
2018-03-15T12:56:38.492Z,9.09
2018-03-15T12:59:06.003Z,8.78
2018-03-15T13:01:33.788Z,8.82
2018-03-15T13:04:01.448Z,8.78
2018-03-15T13:06:28.910Z,8.53
2018-03-15T13:08:56.405Z,8.75
2018-03-15T13:11:23.920Z,8.77
2018-03-15T13:13:51.728Z,8.69
2018-03-15T13:16:19.447Z,8.53
2018-03-15T13:18:47.056Z,8.69
2018-03-15T13:21:14.524Z,8.56
2018-03-15T13:23:42.019Z,8.67
2018-03-15T13:26:09.505Z,8.77
2018-03-15T13:28:37.032Z,8.90
2018-03-15T13:31:04.543Z,8.66
2018-03-15T13:33:32.050Z,8.54
2018-03-15T13:35:59.552Z,8.61
2018-03-15T13:38:27.048Z,8.45
2018-03-15T13:40:55.098Z,8.44
2018-03-15T13:43:22.576Z,8.33
2018-03-15T13:45:51.386Z,8.27
2018-03-15T13:48:18.880Z,8.25
2018-03-15T13:50:47.362Z,8.25
2018-03-15T13:53:14.884Z,8.22
2018-03-15T13:55:42.383Z,8.29
2018-03-15T13:58:09.869Z,8.23
2018-03-15T14:00:37.562Z,8.14
2018-03-15T14:03:05.030Z,8.16
2018-03-15T14:05:32.581Z,8.14
2018-03-15T14:08:00.109Z,8.17
2018-03-15T14:10:27.594Z,8.20
2018-03-15T14:12:55.091Z,8.19
2018-03-15T14:15:22.562Z,8.19
2018-03-15T14:17:50.076Z,8.16
2018-03-15T14:20:17.578Z,8.06
2018-03-15T14:22:45.096Z,8.11
2018-03-15T14:25:12.576Z,8.16
2018-03-15T14:27:40.060Z,8.11
2018-03-15T14:30:07.549Z,8.10
2018-03-15T14:32:36.439Z,8.17
2018-03-15T14:35:03.912Z,8.22
2018-03-15T14:37:31.440Z,8.17
2018-03-15T14:39:58.933Z,8.13
2018-03-15T14:42:26.408Z,8.14
2018-03-15T14:44:54.920Z,8.13
2018-03-15T14:47:23.466Z,8.15
2018-03-15T14:49:50.960Z,8.18
2018-03-15T14:52:18.452Z,8.13
2018-03-15T14:54:45.961Z,8.10
2018-03-15T14:57:13.449Z,8.11
2018-03-15T14:59:40.923Z,8.10
2018-03-15T15:02:08.425Z,8.06
2018-03-15T15:04:36.467Z,8.05
2018-03-15T15:07:03.960Z,8.01
2018-03-15T15:09:32.130Z,8.09
2018-03-15T15:11:59.619Z,8.08
2018-03-15T15:14:27.109Z,7.99
2018-03-15T15:16:55.044Z,7.99
2018-03-15T15:19:22.526Z,7.91
2018-03-15T15:21:50.024Z,7.93
2018-03-15T15:24:17.521Z,7.81
2018-03-15T15:26:45.635Z,7.67
2018-03-15T15:29:13.155Z,7.73
2018-03-15T15:31:40.631Z,7.67
2018-03-15T15:34:08.097Z,7.61
2018-03-15T15:36:35.558Z,7.73
2018-03-15T15:39:03.048Z,7.52
2018-03-15T15:41:30.530Z,7.25
2018-03-15T15:43:58.014Z,7.23
2018-03-15T15:46:25.521Z,7.34
2018-03-15T15:48:53.005Z,7.30
2018-03-15T15:51:20.486Z,7.29
2018-03-15T15:53:47.992Z,7.22
2018-03-15T15:56:15.461Z,7.24
2018-03-15T15:58:42.930Z,7.08
2018-03-15T16:01:11.173Z,7.09
2018-03-15T16:03:38.988Z,6.89
2018-03-15T16:06:07.460Z,6.93
2018-03-15T16:08:35.622Z,6.80
2018-03-15T16:11:03.315Z,6.83
2018-03-15T16:13:30.881Z,6.64
2018-03-15T16:15:58.363Z,6.49
2018-03-15T16:18:25.868Z,6.54
2018-03-15T16:20:53.363Z,6.42
2018-03-15T16:23:20.837Z,6.40
2018-03-15T16:25:48.362Z,6.41
2018-03-15T16:28:15.950Z,6.43
2018-03-15T16:30:43.486Z,6.37
2018-03-15T16:33:10.980Z,6.36
2018-03-15T16:35:38.461Z,6.28
2018-03-15T16:38:05.953Z,6.28
2018-03-15T16:40:33.452Z,6.33
2018-03-15T16:43:00.923Z,6.20
2018-03-15T16:45:28.405Z,6.16
2018-03-15T16:47:55.896Z,6.10
2018-03-15T16:50:23.995Z,6.04
2018-03-15T16:52:51.473Z,6.03
2018-03-15T16:55:19.374Z,6.01
2018-03-15T16:57:46.880Z,6.01
2018-03-15T17:00:14.362Z,5.92
2018-03-15T17:02:42.313Z,5.90
2018-03-15T17:05:09.819Z,5.89
2018-03-15T17:07:37.323Z,5.84
2018-03-15T17:10:04.844Z,5.80
2018-03-15T17:12:32.335Z,5.80
2018-03-15T17:14:59.813Z,5.81
2018-03-15T17:17:27.964Z,5.79
2018-03-15T17:19:55.490Z,5.81
2018-03-15T17:22:22.942Z,5.78
2018-03-15T17:24:51.046Z,5.75
2018-03-15T17:27:18.576Z,5.62
2018-03-15T17:29:46.096Z,5.75
2018-03-15T17:32:13.584Z,5.64
2018-03-15T17:34:41.077Z,5.65
2018-03-15T17:37:09.593Z,5.64
2018-03-15T17:39:37.059Z,5.58
2018-03-15T17:42:04.538Z,5.58
2018-03-15T17:44:33.021Z,5.58
2018-03-15T17:47:00.549Z,5.49
2018-03-15T17:49:28.051Z,5.51
2018-03-15T17:51:55.524Z,5.54
2018-03-15T17:54:23.011Z,5.52
2018-03-15T17:56:50.482Z,5.51
2018-03-15T17:59:17.980Z,5.52
2018-03-15T18:01:45.544Z,5.45
2018-03-15T18:04:13.083Z,5.48
2018-03-15T18:06:40.596Z,5.42
2018-03-15T18:09:08.111Z,5.42
2018-03-15T18:11:35.774Z,5.40
2018-03-15T18:14:03.276Z,5.36
2018-03-15T18:16:31.449Z,5.37
2018-03-15T18:18:58.946Z,5.34
2018-03-15T18:21:26.885Z,5.27
2018-03-15T18:23:54.369Z,5.27
2018-03-15T18:26:21.855Z,5.23
2018-03-15T18:28:49.334Z,5.19
2018-03-15T18:31:16.830Z,5.19
2018-03-15T18:33:44.330Z,5.15
2018-03-15T18:36:11.882Z,5.13
2018-03-15T18:38:39.845Z,5.16
2018-03-15T18:41:07.915Z,5.05
2018-03-15T18:43:35.410Z,5.04
2018-03-15T18:46:03.520Z,5.02
2018-03-15T18:48:30.997Z,4.93
2018-03-15T18:50:58.528Z,5.01
2018-03-15T18:53:26.427Z,4.96
2018-03-15T18:55:53.932Z,4.95
2018-03-15T18:58:21.412Z,4.92
2018-03-15T19:00:49.235Z,4.89
2018-03-15T19:03:16.699Z,4.91
2018-03-15T19:05:44.194Z,4.89
2018-03-15T19:08:11.682Z,4.91
2018-03-15T19:10:39.178Z,4.93
2018-03-15T19:13:06.689Z,4.84
2018-03-15T19:15:34.209Z,4.85
2018-03-15T19:18:01.715Z,4.85
2018-03-15T19:20:30.098Z,4.78
2018-03-15T19:22:58.866Z,4.78
2018-03-15T19:25:26.354Z,4.75
2018-03-15T19:27:53.871Z,4.70
2018-03-15T19:30:21.374Z,4.73
2018-03-15T19:32:48.873Z,4.70
2018-03-15T19:35:16.398Z,4.67
2018-03-15T19:37:45.768Z,4.69
2018-03-15T19:40:13.352Z,4.69
2018-03-15T19:42:41.499Z,4.75
2018-03-15T19:45:09.166Z,4.69
2018-03-15T19:47:36.753Z,4.72
2018-03-15T19:50:04.273Z,4.73
2018-03-15T19:52:32.360Z,4.75
2018-03-15T19:55:00.139Z,4.68
2018-03-15T19:57:27.622Z,4.76
2018-03-15T19:59:55.146Z,4.76
2018-03-15T20:02:22.940Z,4.79
2018-03-15T20:04:50.969Z,4.74
2018-03-15T20:07:18.550Z,4.76
2018-03-15T20:09:48.987Z,4.77
2018-03-15T20:14:55.492Z,4.71
2018-03-15T20:17:23.002Z,4.75
2018-03-15T20:19:51.562Z,4.71
2018-03-15T20:22:25.210Z,4.69
2018-03-15T20:24:52.745Z,4.70
2018-03-15T20:27:25.782Z,4.80
2018-03-15T20:29:53.296Z,4.70
2018-03-15T20:32:26.430Z,4.72
2018-03-15T20:34:53.969Z,4.75
2018-03-15T20:37:22.200Z,4.69
2018-03-15T20:39:56.856Z,4.67
2018-03-15T20:42:24.458Z,4.68
2018-03-15T20:44:52.998Z,4.68
2018-03-15T20:47:25.985Z,4.69
2018-03-15T20:49:53.526Z,4.64
2018-03-15T20:52:21.030Z,4.64
2018-03-15T20:54:48.548Z,4.68
2018-03-15T20:57:16.042Z,4.63
2018-03-15T20:59:43.546Z,4.61
2018-03-15T21:02:11.041Z,4.66
2018-03-15T21:04:38.601Z,4.66
2018-03-15T21:07:06.224Z,4.65
2018-03-15T21:09:35.302Z,4.68
2018-03-15T21:12:06.442Z,4.69
2018-03-15T21:14:33.926Z,4.70
2018-03-15T21:17:01.431Z,4.67
2018-03-15T21:19:29.960Z,4.67
2018-03-15T21:21:57.539Z,4.61
2018-03-15T21:24:25.765Z,4.64
2018-03-15T21:26:53.417Z,4.62
2018-03-15T21:29:25.753Z,4.65
2018-03-15T21:31:54.227Z,4.65
2018-03-15T21:34:22.786Z,4.62
2018-03-15T21:36:50.912Z,4.66
2018-03-15T21:39:19.312Z,4.62
2018-03-15T21:41:46.820Z,4.60
2018-03-15T21:44:14.312Z,4.65
2018-03-15T21:46:41.953Z,4.71
2018-03-15T21:49:09.452Z,4.62
2018-03-15T21:51:36.933Z,4.59
2018-03-15T21:54:04.457Z,4.61
2018-03-15T21:56:32.113Z,4.62
2018-03-15T21:58:59.618Z,4.55
2018-03-15T22:01:28.039Z,4.59
2018-03-15T22:03:55.618Z,4.60
2018-03-15T22:06:23.096Z,4.64
2018-03-15T22:08:50.564Z,4.63
2018-03-15T22:11:18.125Z,4.58
2018-03-15T22:13:50.169Z,4.60
2018-03-15T22:16:21.561Z,4.55
2018-03-15T22:18:51.071Z,4.60
2018-03-15T22:21:18.688Z,4.58
2018-03-15T22:23:48.445Z,4.58
2018-03-15T22:26:15.910Z,4.61
2018-03-15T22:28:44.382Z,4.59
2018-03-15T22:31:12.532Z,4.55
2018-03-15T22:33:40.101Z,4.58
2018-03-15T22:36:08.697Z,4.59
2018-03-15T22:38:36.266Z,4.56
2018-03-15T22:41:03.730Z,4.55
2018-03-15T22:43:31.222Z,4.50
2018-03-15T22:45:58.734Z,4.54
2018-03-15T22:48:27.269Z,4.49
2018-03-15T22:50:54.752Z,4.52
2018-03-15T22:53:22.277Z,4.51
2018-03-15T22:55:49.800Z,4.49
2018-03-15T22:58:17.382Z,4.45
2018-03-15T23:00:44.893Z,4.48
2018-03-15T23:03:12.385Z,4.45
2018-03-15T23:05:39.900Z,4.40
2018-03-15T23:08:15.541Z,4.42
2018-03-15T23:10:43.153Z,4.43
2018-03-15T23:13:11.345Z,4.40
2018-03-15T23:15:39.463Z,4.43
2018-03-15T23:18:06.944Z,4.39
2018-03-15T23:20:35.130Z,4.38
2018-03-15T23:23:03.519Z,4.41
2018-03-15T23:25:31.143Z,4.44
2018-03-15T23:27:58.876Z,4.39
2018-03-15T23:30:26.761Z,4.38
2018-03-15T23:32:54.253Z,4.38
2018-03-15T23:35:26.196Z,4.44
2018-03-15T23:37:55.065Z,4.37
2018-03-15T23:40:22.857Z,4.40
2018-03-15T23:42:50.433Z,4.44
2018-03-15T23:45:18.152Z,4.38
2018-03-15T23:47:47.564Z,4.33
2018-03-15T23:50:15.049Z,4.26
2018-03-15T23:52:42.576Z,4.23
2018-03-15T23:55:10.078Z,4.31
2018-03-15T23:57:38.931Z,4.29
